sensor_id;sensor_type;location;lat;lon;timestamp;pressure;altitude;pressure_sealevel;temperature;humidity
63837;BME280;49991;50.518;30.486;2022-08-11T00:00:59;100323.84;;;22.19;58.12
63837;BME280;49991;50.518;30.486;2022-08-11T00:03:31;100320.50;;;22.15;57.83
63837;BME280;49991;50.518;30.486;2022-08-11T00:05:59;100314.19;;;22.18;58.13
63837;BME280;49991;50.518;30.486;2022-08-11T00:08:28;100298.25;;;22.18;58.24
63837;BME280;49991;50.518;30.486;2022-08-11T00:11:00;100300.13;;;22.16;58.17
63837;BME280;49991;50.518;30.486;2022-08-11T00:13:32;100292.41;;;22.11;58.37
63837;BME280;49991;50.518;30.486;2022-08-11T00:16:00;100286.53;;;22.05;58.59
63837;BME280;49991;50.518;30.486;2022-08-11T00:18:29;100271.22;;;21.92;58.79
63837;BME280;49991;50.518;30.486;2022-08-11T00:21:03;100276.09;;;21.83;58.89
63837;BME280;49991;50.518;30.486;2022-08-11T00:23:31;100277.19;;;21.79;59.11
63837;BME280;49991;50.518;30.486;2022-08-11T00:25:59;100292.25;;;21.78;59.39
63837;BME280;49991;50.518;30.486;2022-08-11T00:28:27;100295.81;;;21.77;59.40
63837;BME280;49991;50.518;30.486;2022-08-11T00:30:57;100288.44;;;21.84;59.29
63837;BME280;49991;50.518;30.486;2022-08-11T00:33:31;100273.75;;;21.77;59.04
63837;BME280;49991;50.518;30.486;2022-08-11T00:35:59;100282.19;;;21.85;59.18
63837;BME280;49991;50.518;30.486;2022-08-11T00:38:32;100291.00;;;21.85;59.14
63837;BME280;49991;50.518;30.486;2022-08-11T00:41:09;100295.31;;;21.88;59.12
63837;BME280;49991;50.518;30.486;2022-08-11T00:43:49;100295.16;;;21.91;58.94
63837;BME280;49991;50.518;30.486;2022-08-11T00:46:26;100279.25;;;21.91;59.33
63837;BME280;49991;50.518;30.486;2022-08-11T00:49:06;100289.78;;;21.92;59.10
63837;BME280;49991;50.518;30.486;2022-08-11T00:51:46;100286.13;;;21.95;58.73
63837;BME280;49991;50.518;30.486;2022-08-11T00:54:38;100293.75;;;22.01;58.67
63837;BME280;49991;50.518;30.486;2022-08-11T00:57:49;100296.41;;;22.01;58.75
63837;BME280;49991;50.518;30.486;2022-08-11T01:00:22;100293.91;;;21.98;58.92
63837;BME280;49991;50.518;30.486;2022-08-11T01:03:06;100290.31;;;21.99;58.92
63837;BME280;49991;50.518;30.486;2022-08-11T01:05:49;100294.53;;;22.03;58.81
63837;BME280;49991;50.518;30.486;2022-08-11T01:09:06;100294.53;;;22.03;58.55
63837;BME280;49991;50.518;30.486;2022-08-11T01:12:03;100292.41;;;22.11;58.93
63837;BME280;49991;50.518;30.486;2022-08-11T01:18:15;100299.59;;;21.90;58.41
63837;BME280;49991;50.518;30.486;2022-08-11T01:21:11;100289.50;;;21.80;58.76
63837;BME280;49991;50.518;30.486;2022-08-11T01:27:06;100291.63;;;21.73;59.13
63837;BME280;49991;50.518;30.486;2022-08-11T01:30:18;100281.72;;;21.77;59.18
63837;BME280;49991;50.518;30.486;2022-08-11T01:36:26;100283.59;;;21.75;59.09
63837;BME280;49991;50.518;30.486;2022-08-11T01:45:26;100282.88;;;21.71;59.22
63837;BME280;49991;50.518;30.486;2022-08-11T01:48:04;100289.03;;;21.72;59.53
63837;BME280;49991;50.518;30.486;2022-08-11T01:50:44;100274.69;;;21.76;59.45
63837;BME280;49991;50.518;30.486;2022-08-11T01:53:23;100270.25;;;21.76;59.64
63837;BME280;49991;50.518;30.486;2022-08-11T01:56:02;100280.16;;;21.73;59.73
63837;BME280;49991;50.518;30.486;2022-08-11T01:58:35;100277.44;;;21.74;59.86
63837;BME280;49991;50.518;30.486;2022-08-11T02:01:14;100268.00;;;21.69;59.91
63837;BME280;49991;50.518;30.486;2022-08-11T02:03:54;100266.91;;;21.73;59.89
63837;BME280;49991;50.518;30.486;2022-08-11T02:06:30;100268.00;;;21.69;59.91
63837;BME280;49991;50.518;30.486;2022-08-11T02:09:43;100260.38;;;21.61;60.14
63837;BME280;49991;50.518;30.486;2022-08-11T02:12:25;100259.53;;;21.60;60.26
63837;BME280;49991;50.518;30.486;2022-08-11T02:15:01;100257.75;;;21.61;59.96
63837;BME280;49991;50.518;30.486;2022-08-11T02:17:40;100263.91;;;21.61;59.91
63837;BME280;49991;50.518;30.486;2022-08-11T02:20:17;100269.13;;;21.63;60.11
63837;BME280;49991;50.518;30.486;2022-08-11T02:23:08;100256.72;;;21.64;59.93
63837;BME280;49991;50.518;30.486;2022-08-11T02:26:02;100256.72;;;21.64;60.07
63837;BME280;49991;50.518;30.486;2022-08-11T02:28:36;100255.94;;;21.61;60.04
63837;BME280;49991;50.518;30.486;2022-08-11T02:31:11;100255.66;;;21.68;60.35
63837;BME280;49991;50.518;30.486;2022-08-11T02:34:08;100255.88;;;21.63;60.06
63837;BME280;49991;50.518;30.486;2022-08-11T02:36:44;100253.22;;;21.63;60.52
63837;BME280;49991;50.518;30.486;2022-08-11T02:39:17;100249.78;;;21.61;60.43
63837;BME280;49991;50.518;30.486;2022-08-11T02:41:51;100262.09;;;21.62;60.73
63837;BME280;49991;50.518;30.486;2022-08-11T02:44:43;100263.28;;;21.56;60.85
63837;BME280;49991;50.518;30.486;2022-08-11T02:47:27;100262.97;;;21.63;60.71
63837;BME280;49991;50.518;30.486;2022-08-11T02:50:02;100231.00;;;21.48;60.84
63837;BME280;49991;50.518;30.486;2022-08-11T02:52:33;100259.53;;;21.60;60.78
63837;BME280;49991;50.518;30.486;2022-08-11T02:55:17;100257.19;;;21.54;60.73
63837;BME280;49991;50.518;30.486;2022-08-11T02:57:51;100268.88;;;21.50;61.05
63837;BME280;49991;50.518;30.486;2022-08-11T03:00:20;100277.09;;;21.44;61.09
63837;BME280;49991;50.518;30.486;2022-08-11T03:05:55;100254.84;;;21.29;61.46
63837;BME280;49991;50.518;30.486;2022-08-11T03:08:46;100252.44;;;21.25;61.51
63837;BME280;49991;50.518;30.486;2022-08-11T03:11:21;100257.72;;;21.25;61.41
63837;BME280;49991;50.518;30.486;2022-08-11T03:14:14;100271.91;;;21.24;61.46
63837;BME280;49991;50.518;30.486;2022-08-11T03:17:09;100253.28;;;21.25;61.38
63837;BME280;49991;50.518;30.486;2022-08-11T03:20:04;100252.44;;;21.25;61.35
63837;BME280;49991;50.518;30.486;2022-08-11T03:22:39;100263.97;;;21.22;61.65
63837;BME280;49991;50.518;30.486;2022-08-11T03:25:11;100252.03;;;21.14;61.80
63837;BME280;49991;50.518;30.486;2022-08-11T03:27:49;100255.44;;;21.16;61.85
63837;BME280;49991;50.518;30.486;2022-08-11T03:30:22;100262.72;;;21.31;61.61
63837;BME280;49991;50.518;30.486;2022-08-11T03:33:00;100258.28;;;21.32;61.57
63837;BME280;49991;50.518;30.486;2022-08-11T03:35:49;100262.00;;;21.27;61.59
63837;BME280;49991;50.518;30.486;2022-08-11T03:38:22;100238.41;;;21.02;61.85
63837;BME280;49991;50.518;30.486;2022-08-11T03:41:05;100265.25;;;21.14;62.26
63837;BME280;49991;50.518;30.486;2022-08-11T03:43:58;100259.97;;;21.14;62.12
63837;BME280;49991;50.518;30.486;2022-08-11T03:46:41;100276.94;;;21.10;62.30
63837;BME280;49991;50.518;30.486;2022-08-11T03:49:32;100277.22;;;21.04;62.22
63837;BME280;49991;50.518;30.486;2022-08-11T03:52:12;100261.81;;;20.93;62.34
63837;BME280;49991;50.518;30.486;2022-08-11T03:54:49;100265.03;;;20.99;62.26
63837;BME280;49991;50.518;30.486;2022-08-11T04:03:26;100256.38;;;21.15;61.93
63837;BME280;49991;50.518;30.486;2022-08-11T04:06:39;100259.19;;;21.12;61.97
63837;BME280;49991;50.518;30.486;2022-08-11T04:12:31;100265.69;;;21.05;62.25
63837;BME280;49991;50.518;30.486;2022-08-11T04:15:13;100261.53;;;20.99;62.22
63837;BME280;49991;50.518;30.486;2022-08-11T04:18:21;100262.53;;;20.96;62.43
63837;BME280;49991;50.518;30.486;2022-08-11T04:27:06;100266.84;;;20.79;62.96
63837;BME280;49991;50.518;30.486;2022-08-11T04:29:55;100252.91;;;20.75;62.99
63837;BME280;49991;50.518;30.486;2022-08-11T04:32:53;100254.34;;;20.63;63.43
63837;BME280;49991;50.518;30.486;2022-08-11T04:35:39;100258.03;;;20.59;63.65
63837;BME280;49991;50.518;30.486;2022-08-11T04:38:37;100254.84;;;20.72;63.24
63837;BME280;49991;50.518;30.486;2022-08-11T04:41:50;100255.41;;;20.78;62.86
63837;BME280;49991;50.518;30.486;2022-08-11T04:47:49;100235.47;;;20.71;62.95
63837;BME280;49991;50.518;30.486;2022-08-11T04:50:51;100239.59;;;20.77;63.28
63837;BME280;49991;50.518;30.486;2022-08-11T04:53:47;100216.28;;;20.66;63.58
63837;BME280;49991;50.518;30.486;2022-08-11T04:56:34;100200.13;;;20.72;63.53
63837;BME280;49991;50.518;30.486;2022-08-11T04:59:36;100212.13;;;20.79;63.46
63837;BME280;49991;50.518;30.486;2022-08-11T05:06:08;100212.13;;;20.79;63.58
63837;BME280;49991;50.518;30.486;2022-08-11T05:14:47;100220.81;;;20.83;63.81
63837;BME280;49991;50.518;30.486;2022-08-11T05:17:38;100218.19;;;20.83;64.31
63837;BME280;49991;50.518;30.486;2022-08-11T05:20:24;100220.81;;;21.01;63.86
63837;BME280;49991;50.518;30.486;2022-08-11T05:23:10;100228.59;;;21.25;62.85
63837;BME280;49991;50.518;30.486;2022-08-11T05:25:58;100217.25;;;21.40;61.82
63837;BME280;49991;50.518;30.486;2022-08-11T05:28:50;100228.91;;;20.98;63.70
63837;BME280;49991;50.518;30.486;2022-08-11T05:31:38;100222.22;;;20.71;64.40
63837;BME280;49991;50.518;30.486;2022-08-11T05:34:25;100231.66;;;20.77;64.22
63837;BME280;49991;50.518;30.486;2022-08-11T05:37:13;100259.78;;;20.79;64.06
63837;BME280;49991;50.518;30.486;2022-08-11T05:39:48;100277.50;;;20.77;64.11
63837;BME280;49991;50.518;30.486;2022-08-11T05:42:33;100273.00;;;20.79;64.00
63837;BME280;49991;50.518;30.486;2022-08-11T05:45:20;100298.81;;;20.74;63.90
63837;BME280;49991;50.518;30.486;2022-08-11T05:48:05;100298.75;;;20.76;63.86
63837;BME280;49991;50.518;30.486;2022-08-11T05:50:51;100276.25;;;20.86;63.68
63837;BME280;49991;50.518;30.486;2022-08-11T05:53:44;100269.50;;;20.79;63.58
63837;BME280;49991;50.518;30.486;2022-08-11T05:56:31;100260.56;;;20.81;63.62
63837;BME280;49991;50.518;30.486;2022-08-11T05:58:59;100258.78;;;20.82;63.60
63837;BME280;49991;50.518;30.486;2022-08-11T06:01:28;100257.88;;;20.83;63.47
63837;BME280;49991;50.518;30.486;2022-08-11T06:03:57;100253.44;;;20.83;63.37
63837;BME280;49991;50.518;30.486;2022-08-11T06:06:42;100275.03;;;20.93;63.11
63837;BME280;49991;50.518;30.486;2022-08-11T06:09:12;100281.09;;;20.76;63.84
63837;BME280;49991;50.518;30.486;2022-08-11T06:11:41;100282.81;;;20.77;63.59
63837;BME280;49991;50.518;30.486;2022-08-11T06:14:09;100284.53;;;20.78;63.60
63837;BME280;49991;50.518;30.486;2022-08-11T06:16:37;100283.53;;;20.81;63.83
63837;BME280;49991;50.518;30.486;2022-08-11T06:19:05;100288.72;;;20.84;63.49
63837;BME280;49991;50.518;30.486;2022-08-11T06:21:33;100277.38;;;20.80;63.60
63837;BME280;49991;50.518;30.486;2022-08-11T06:24:02;100295.72;;;20.85;63.42
63837;BME280;49991;50.518;30.486;2022-08-11T06:26:30;100299.88;;;20.90;63.41
63837;BME280;49991;50.518;30.486;2022-08-11T06:28:58;100296.41;;;21.09;62.85
63837;BME280;49991;50.518;30.486;2022-08-11T06:31:26;100290.03;;;21.13;62.77
63837;BME280;49991;50.518;30.486;2022-08-11T06:33:57;100279.28;;;21.16;62.69
63837;BME280;49991;50.518;30.486;2022-08-11T06:36:33;100279.06;;;21.20;62.71
63837;BME280;49991;50.518;30.486;2022-08-11T06:39:08;100286.78;;;21.26;62.50
63837;BME280;49991;50.518;30.486;2022-08-11T06:41:45;100286.63;;;21.29;62.51
63837;BME280;49991;50.518;30.486;2022-08-11T06:44:23;100288.22;;;21.34;62.54
63837;BME280;49991;50.518;30.486;2022-08-11T06:46:53;100297.16;;;21.31;62.37
63837;BME280;49991;50.518;30.486;2022-08-11T06:49:33;100306.81;;;21.32;62.53
63837;BME280;49991;50.518;30.486;2022-08-11T06:52:18;100293.66;;;21.30;62.74
63837;BME280;49991;50.518;30.486;2022-08-11T06:54:54;100282.19;;;21.30;62.44
63837;BME280;49991;50.518;30.486;2022-08-11T06:57:30;100296.78;;;21.39;62.46
63837;BME280;49991;50.518;30.486;2022-08-11T07:00:17;100311.53;;;21.44;62.45
63837;BME280;49991;50.518;30.486;2022-08-11T07:03:01;100313.75;;;21.53;62.14
63837;BME280;49991;50.518;30.486;2022-08-11T07:05:39;100318.91;;;21.56;62.26
63837;BME280;49991;50.518;30.486;2022-08-11T07:11:51;100333.00;;;21.76;61.95
63837;BME280;49991;50.518;30.486;2022-08-11T07:14:43;100340.19;;;21.74;61.71
63837;BME280;49991;50.518;30.486;2022-08-11T07:17:34;100354.69;;;21.84;61.43
63837;BME280;49991;50.518;30.486;2022-08-11T07:20:05;100343.16;;;21.85;61.68
63837;BME280;49991;50.518;30.486;2022-08-11T07:22:54;100334.00;;;21.92;61.06
63837;BME280;49991;50.518;30.486;2022-08-11T07:25:50;100343.03;;;21.88;61.35
63837;BME280;49991;50.518;30.486;2022-08-11T07:28:38;100343.63;;;21.76;61.79
63837;BME280;49991;50.518;30.486;2022-08-11T07:31:28;100342.63;;;21.59;62.54
63837;BME280;49991;50.518;30.486;2022-08-11T07:34:04;100321.28;;;21.44;62.72
63837;BME280;49991;50.518;30.486;2022-08-11T07:36:39;100323.28;;;21.39;63.10
63837;BME280;49991;50.518;30.486;2022-08-11T07:39:18;100301.75;;;21.27;63.04
63837;BME280;49991;50.518;30.486;2022-08-11T07:41:47;100291.88;;;21.31;63.38
63837;BME280;49991;50.518;30.486;2022-08-11T07:44:15;100269.50;;;21.37;63.49
63837;BME280;49991;50.518;30.486;2022-08-11T07:46:45;100246.28;;;21.24;63.53
63837;BME280;49991;50.518;30.486;2022-08-11T07:49:34;100294.00;;;21.42;63.62
63837;BME280;49991;50.518;30.486;2022-08-11T07:52:19;100290.72;;;21.37;64.05
63837;BME280;49991;50.518;30.486;2022-08-11T07:54:59;100264.94;;;21.40;63.83
63837;BME280;49991;50.518;30.486;2022-08-11T07:57:27;100269.66;;;21.52;64.16
63837;BME280;49991;50.518;30.486;2022-08-11T08:00:14;100285.31;;;21.57;64.18
63837;BME280;49991;50.518;30.486;2022-08-11T08:03:00;100274.41;;;21.63;63.85
63837;BME280;49991;50.518;30.486;2022-08-11T08:05:47;100271.41;;;21.71;63.57
63837;BME280;49991;50.518;30.486;2022-08-11T08:08:34;100286.16;;;21.76;63.18
63837;BME280;49991;50.518;30.486;2022-08-11T08:11:19;100290.44;;;21.79;63.38
63837;BME280;49991;50.518;30.486;2022-08-11T08:14:05;100293.09;;;21.79;63.70
63837;BME280;49991;50.518;30.486;2022-08-11T08:16:51;100287.16;;;21.74;63.82
63837;BME280;49991;50.518;30.486;2022-08-11T08:19:36;100256.53;;;21.68;63.73
63837;BME280;49991;50.518;30.486;2022-08-11T08:22:05;100296.38;;;21.84;63.69
63837;BME280;49991;50.518;30.486;2022-08-11T08:24:32;100278.28;;;21.75;63.95
63837;BME280;49991;50.518;30.486;2022-08-11T08:26:59;100293.09;;;21.79;64.20
63837;BME280;49991;50.518;30.486;2022-08-11T08:29:30;100298.56;;;21.76;64.32
63837;BME280;49991;50.518;30.486;2022-08-11T08:32:16;100298.06;;;21.68;64.49
63837;BME280;49991;50.518;30.486;2022-08-11T08:34:45;100323.56;;;21.70;64.49
63837;BME280;49991;50.518;30.486;2022-08-11T08:37:17;100310.88;;;21.77;64.11
63837;BME280;49991;50.518;30.486;2022-08-11T08:39:44;100312.25;;;22.03;63.50
63837;BME280;49991;50.518;30.486;2022-08-11T08:42:12;100308.25;;;22.13;62.47
63837;BME280;49991;50.518;30.486;2022-08-11T08:44:45;100294.44;;;22.24;62.26
63837;BME280;49991;50.518;30.486;2022-08-11T08:47:15;100300.00;;;22.36;61.81
63837;BME280;49991;50.518;30.486;2022-08-11T08:49:45;100286.19;;;22.30;61.88
63837;BME280;49991;50.518;30.486;2022-08-11T08:52:19;100291.94;;;22.38;61.53
63837;BME280;49991;50.518;30.486;2022-08-11T08:54:49;100296.84;;;22.45;61.59
63837;BME280;49991;50.518;30.486;2022-08-11T08:57:21;100296.63;;;22.50;61.21
63837;BME280;49991;50.518;30.486;2022-08-11T08:59:49;100303.59;;;22.52;61.20
63837;BME280;49991;50.518;30.486;2022-08-11T09:02:17;100299.81;;;22.57;61.00
63837;BME280;49991;50.518;30.486;2022-08-11T09:04:45;100296.06;;;22.61;60.96
63837;BME280;49991;50.518;30.486;2022-08-11T09:07:16;100298.63;;;22.62;61.38
63837;BME280;49991;50.518;30.486;2022-08-11T09:09:47;100287.25;;;22.60;61.55
63837;BME280;49991;50.518;30.486;2022-08-11T09:12:14;100304.47;;;22.69;61.45
63837;BME280;49991;50.518;30.486;2022-08-11T09:14:46;100291.16;;;22.70;60.95
63837;BME280;49991;50.518;30.486;2022-08-11T09:17:30;100278.66;;;22.72;61.13
63837;BME280;49991;50.518;30.486;2022-08-11T09:20:02;100264.44;;;22.73;60.91
63837;BME280;49991;50.518;30.486;2022-08-11T09:22:32;100270.78;;;22.71;61.09
63837;BME280;49991;50.518;30.486;2022-08-11T09:25:19;100276.38;;;22.65;61.11
63837;BME280;49991;50.518;30.486;2022-08-11T09:28:05;100278.25;;;22.63;61.26
63837;BME280;49991;50.518;30.486;2022-08-11T09:30:36;100291.06;;;22.72;61.26
63837;BME280;49991;50.518;30.486;2022-08-11T09:33:06;100288.34;;;22.73;61.22
63837;BME280;49991;50.518;30.486;2022-08-11T09:35:34;100287.22;;;22.77;61.17
63837;BME280;49991;50.518;30.486;2022-08-11T09:38:04;100285.34;;;22.79;61.34
63837;BME280;49991;50.518;30.486;2022-08-11T09:40:51;100294.16;;;22.80;61.21
63837;BME280;49991;50.518;30.486;2022-08-11T09:43:18;100290.66;;;22.79;60.93
63837;BME280;49991;50.518;30.486;2022-08-11T09:46:04;100294.13;;;22.81;61.04
63837;BME280;49991;50.518;30.486;2022-08-11T09:48:38;100285.03;;;22.86;61.13
63837;BME280;49991;50.518;30.486;2022-08-11T09:51:07;100277.00;;;22.87;60.94
63837;BME280;49991;50.518;30.486;2022-08-11T09:53:37;100282.22;;;22.89;61.32
63837;BME280;49991;50.518;30.486;2022-08-11T09:56:08;100276.91;;;22.89;60.75
63837;BME280;49991;50.518;30.486;2022-08-11T09:58:53;100292.28;;;22.99;60.70
63837;BME280;49991;50.518;30.486;2022-08-11T10:01:21;100300.16;;;23.01;60.83
63837;BME280;49991;50.518;30.486;2022-08-11T10:03:55;100292.13;;;23.02;60.44
63837;BME280;49991;50.518;30.486;2022-08-11T10:06:27;100292.81;;;23.06;60.72
63837;BME280;49991;50.518;30.486;2022-08-11T10:09:16;100263.56;;;22.90;60.84
63837;BME280;49991;50.518;30.486;2022-08-11T10:11:46;100281.16;;;23.08;60.81
63837;BME280;49991;50.518;30.486;2022-08-11T10:14:15;100291.22;;;23.19;60.19
63837;BME280;49991;50.518;30.486;2022-08-11T10:17:05;100281.00;;;23.11;59.94
63837;BME280;49991;50.518;30.486;2022-08-11T10:19:32;100301.16;;;23.16;59.90
63837;BME280;49991;50.518;30.486;2022-08-11T10:22:00;100285.28;;;23.14;60.33
63837;BME280;49991;50.518;30.486;2022-08-11T10:24:46;100294.03;;;23.16;59.97
63837;BME280;49991;50.518;30.486;2022-08-11T10:27:32;100296.69;;;23.16;60.14
63837;BME280;49991;50.518;30.486;2022-08-11T10:29:59;100296.59;;;23.18;60.05
63837;BME280;49991;50.518;30.486;2022-08-11T10:32:44;100309.81;;;23.19;60.25
63837;BME280;49991;50.518;30.486;2022-08-11T10:35:30;100288.56;;;23.19;60.00
63837;BME280;49991;50.518;30.486;2022-08-11T10:37:58;100292.84;;;23.22;60.43
63837;BME280;49991;50.518;30.486;2022-08-11T10:40:26;100265.06;;;23.11;60.28
63837;BME280;49991;50.518;30.486;2022-08-11T10:42:58;100142.94;;;22.45;60.46
63837;BME280;49991;50.518;30.486;2022-08-11T10:45:38;100282.13;;;23.23;60.92
63837;BME280;49991;50.518;30.486;2022-08-11T10:48:25;100278.53;;;23.24;60.90
63837;BME280;49991;50.518;30.486;2022-08-11T10:50:54;100279.28;;;23.26;60.88
63837;BME280;49991;50.518;30.486;2022-08-11T10:53:41;100274.84;;;23.27;60.10
63837;BME280;49991;50.518;30.486;2022-08-11T10:56:28;100264.56;;;23.36;60.84
63837;BME280;49991;50.518;30.486;2022-08-11T10:59:14;100257.19;;;23.41;60.68
63837;BME280;49991;50.518;30.486;2022-08-11T11:01:43;100264.03;;;23.46;60.61
63837;BME280;49991;50.518;30.486;2022-08-11T11:04:13;100265.56;;;23.50;60.32
63837;BME280;49991;50.518;30.486;2022-08-11T11:06:49;100261.13;;;23.50;60.71
63837;BME280;49991;50.518;30.486;2022-08-11T11:09:28;100251.34;;;23.51;60.30
63837;BME280;49991;50.518;30.486;2022-08-11T11:11:59;100252.13;;;23.53;61.04
63837;BME280;49991;50.518;30.486;2022-08-11T11:14:47;100252.06;;;23.54;60.52
63837;BME280;49991;50.518;30.486;2022-08-11T11:17:39;100252.91;;;23.55;60.90
63837;BME280;49991;50.518;30.486;2022-08-11T11:20:22;100244.00;;;23.56;60.74
63837;BME280;49991;50.518;30.486;2022-08-11T11:22:53;100251.06;;;23.57;60.33
63837;BME280;49991;50.518;30.486;2022-08-11T11:25:30;100247.28;;;23.61;60.59
63837;BME280;49991;50.518;30.486;2022-08-11T11:28:15;100250.69;;;23.63;60.79
63837;BME280;49991;50.518;30.486;2022-08-11T11:30:55;100254.13;;;23.65;60.93
63837;BME280;49991;50.518;30.486;2022-08-11T11:33:41;100259.69;;;23.76;61.10
63837;BME280;49991;50.518;30.486;2022-08-11T11:36:20;100254.78;;;23.84;60.84
63837;BME280;49991;50.518;30.486;2022-08-11T11:38:51;100247.56;;;23.86;61.42
63837;BME280;49991;50.518;30.486;2022-08-11T11:41:21;100242.06;;;23.89;61.41
63837;BME280;49991;50.518;30.486;2022-08-11T11:43:53;100236.56;;;23.92;61.26
63837;BME280;49991;50.518;30.486;2022-08-11T11:46:24;100246.19;;;23.95;60.92
63837;BME280;49991;50.518;30.486;2022-08-11T11:48:52;100241.72;;;23.95;60.96
63837;BME280;49991;50.518;30.486;2022-08-11T11:51:19;100242.81;;;23.91;60.72
63837;BME280;49991;50.518;30.486;2022-08-11T11:53:47;100247.03;;;23.95;60.69
63837;BME280;49991;50.518;30.486;2022-08-11T11:56:15;100240.06;;;23.93;60.63
63837;BME280;49991;50.518;30.486;2022-08-11T11:58:43;100243.59;;;23.93;60.83
63837;BME280;49991;50.518;30.486;2022-08-11T12:01:30;100246.44;;;23.90;61.13
63837;BME280;49991;50.518;30.486;2022-08-11T12:04:00;100243.78;;;23.90;61.28
63837;BME280;49991;50.518;30.486;2022-08-11T12:06:31;100244.31;;;23.81;61.33
63837;BME280;49991;50.518;30.486;2022-08-11T12:08:58;100253.44;;;23.77;61.46
63837;BME280;49991;50.518;30.486;2022-08-11T12:11:28;100258.13;;;23.72;61.88
63837;BME280;49991;50.518;30.486;2022-08-11T12:14:16;100246.72;;;23.70;62.44
63837;BME280;49991;50.518;30.486;2022-08-11T12:16:47;100242.19;;;23.72;62.34
63837;BME280;49991;50.518;30.486;2022-08-11T12:19:16;100237.81;;;23.71;62.34
63837;BME280;49991;50.518;30.486;2022-08-11T12:21:46;100246.41;;;23.60;62.65
63837;BME280;49991;50.518;30.486;2022-08-11T12:24:33;100248.97;;;23.62;62.63
63837;BME280;49991;50.518;30.486;2022-08-11T12:27:18;100248.97;;;23.62;63.58
63837;BME280;49991;50.518;30.486;2022-08-11T12:29:50;100245.56;;;23.60;63.64
63837;BME280;49991;50.518;30.486;2022-08-11T12:32:19;100252.59;;;23.61;63.63
63837;BME280;49991;50.518;30.486;2022-08-11T12:34:46;100253.09;;;23.67;64.00
63837;BME280;49991;50.518;30.486;2022-08-11T12:37:15;100252.22;;;23.67;64.07
63837;BME280;49991;50.518;30.486;2022-08-11T12:39:46;100230.38;;;23.62;64.29
63837;BME280;49991;50.518;30.486;2022-08-11T12:42:33;100251.56;;;23.63;63.95
63837;BME280;49991;50.518;30.486;2022-08-11T12:45:22;100244.88;;;23.56;63.75
63837;BME280;49991;50.518;30.486;2022-08-11T12:48:02;100254.31;;;23.62;63.64
63837;BME280;49991;50.518;30.486;2022-08-11T12:50:50;100260.38;;;23.64;63.93
63837;BME280;49991;50.518;30.486;2022-08-11T12:53:38;100250.09;;;23.58;64.47
63837;BME280;49991;50.518;30.486;2022-08-11T12:56:08;100248.13;;;23.61;63.85
63837;BME280;49991;50.518;30.486;2022-08-11T12:58:53;100249.94;;;23.61;64.28
63837;BME280;49991;50.518;30.486;2022-08-11T13:01:39;100270.44;;;23.59;64.24
63837;BME280;49991;50.518;30.486;2022-08-11T13:04:24;100264.25;;;23.58;64.23
63837;BME280;49991;50.518;30.486;2022-08-11T13:07:11;100257.28;;;23.56;64.79
63837;BME280;49991;50.518;30.486;2022-08-11T13:09:38;100244.31;;;23.50;64.22
63837;BME280;49991;50.518;30.486;2022-08-11T13:12:06;100253.44;;;23.61;64.45
63837;BME280;49991;50.518;30.486;2022-08-11T13:14:51;100258.66;;;23.63;64.33
63837;BME280;49991;50.518;30.486;2022-08-11T13:17:18;100233.50;;;23.53;64.52
63837;BME280;49991;50.518;30.486;2022-08-11T13:19:50;100245.38;;;23.63;65.06
63837;BME280;49991;50.518;30.486;2022-08-11T13:22:19;100232.09;;;23.63;64.52
63837;BME280;49991;50.518;30.486;2022-08-11T13:24:47;100229.91;;;23.69;64.21
63837;BME280;49991;50.518;30.486;2022-08-11T13:27:15;100241.09;;;23.76;63.67
63837;BME280;49991;50.518;30.486;2022-08-11T13:29:45;100239.28;;;23.77;63.92
63837;BME280;49991;50.518;30.486;2022-08-11T13:32:13;100239.19;;;23.78;63.83
63837;BME280;49991;50.518;30.486;2022-08-11T13:34:42;100245.94;;;23.84;63.75
63837;BME280;49991;50.518;30.486;2022-08-11T13:37:12;100253.84;;;23.85;63.01
63837;BME280;49991;50.518;30.486;2022-08-11T13:39:42;100231.97;;;23.80;63.12
63837;BME280;49991;50.518;30.486;2022-08-11T13:42:13;100246.03;;;23.82;63.27
63837;BME280;49991;50.518;30.486;2022-08-11T13:44:41;100240.53;;;23.85;62.91
63837;BME280;49991;50.518;30.486;2022-08-11T13:47:11;100220.13;;;23.70;63.41
63837;BME280;49991;50.518;30.486;2022-08-11T13:49:39;100237.09;;;23.83;63.17
63837;BME280;49991;50.518;30.486;2022-08-11T13:52:11;100236.16;;;23.84;63.35
63837;BME280;49991;50.518;30.486;2022-08-11T13:54:39;100241.31;;;23.87;63.38
63837;BME280;49991;50.518;30.486;2022-08-11T13:57:08;100234.28;;;23.86;63.52
63837;BME280;49991;50.518;30.486;2022-08-11T13:59:37;100240.25;;;23.90;63.56
63837;BME280;49991;50.518;30.486;2022-08-11T14:02:09;100239.97;;;23.94;63.35
63837;BME280;49991;50.518;30.486;2022-08-11T14:04:41;100247.91;;;23.96;63.12
63837;BME280;49991;50.518;30.486;2022-08-11T14:07:10;100255.94;;;23.94;62.95
63837;BME280;49991;50.518;30.486;2022-08-11T14:09:41;100249.44;;;24.00;62.61
63837;BME280;49991;50.518;30.486;2022-08-11T14:12:12;100236.22;;;23.98;62.45
63837;BME280;49991;50.518;30.486;2022-08-11T14:15:00;100247.53;;;24.02;62.47
63837;BME280;49991;50.518;30.486;2022-08-11T14:17:31;100255.50;;;24.02;62.07
63837;BME280;49991;50.518;30.486;2022-08-11T14:20:00;100251.81;;;24.05;61.75
63837;BME280;49991;50.518;30.486;2022-08-11T14:22:34;100249.25;;;24.03;61.88
63837;BME280;49991;50.518;30.486;2022-08-11T14:25:02;100220.59;;;23.92;61.33
63837;BME280;49991;50.518;30.486;2022-08-11T14:27:29;100249.91;;;24.07;61.57